sensor_id;sensor_type;location;lat;lon;timestamp;pressure;altitude;pressure_sealevel;temperature;humidity
9281;BME280;4679;47.966;7.958;2023-03-03T06:46:07;97371.75;;;0.02;81.69
9281;BME280;4679;47.966;7.958;2023-03-03T06:48:09;97371.25;;;0.07;81.16
9281;BME280;4679;47.966;7.958;2023-03-03T06:50:11;97377.75;;;0.11;81.36
9281;BME280;4679;47.966;7.958;2023-03-03T06:52:17;97377.88;;;0.17;81.07
9281;BME280;4679;47.966;7.958;2023-03-03T06:54:23;97377.38;;;0.22;81.21
9281;BME280;4679;47.966;7.958;2023-03-03T06:56:35;97376.84;;;0.26;81.24
9281;BME280;4679;47.966;7.958;2023-03-03T06:58:37;97377.59;;;0.35;81.17
9281;BME280;4679;47.966;7.958;2023-03-03T07:00:40;97379.69;;;0.40;81.09
9281;BME280;4679;47.966;7.958;2023-03-03T07:02:45;97383.94;;;0.41;81.05
9281;BME280;4679;47.966;7.958;2023-03-03T07:04:47;97388.81;;;0.44;80.85
9281;BME280;4679;47.966;7.958;2023-03-03T07:06:48;97389.25;;;0.47;80.85
9281;BME280;4679;47.966;7.958;2023-03-03T07:08:51;97392.50;;;0.49;80.89
9281;BME280;4679;47.966;7.958;2023-03-03T07:10:53;97392.66;;;0.56;81.05
9281;BME280;4679;47.966;7.958;2023-03-03T07:13:13;97394.91;;;0.59;80.83
9281;BME280;4679;47.966;7.958;2023-03-03T07:15:20;97395.00;;;0.65;80.45
9281;BME280;4679;47.966;7.958;2023-03-03T07:17:23;97402.34;;;0.70;81.06
9281;BME280;4679;47.966;7.958;2023-03-03T07:19:30;97394.97;;;0.74;80.92
9281;BME280;4679;47.966;7.958;2023-03-03T07:21:34;97397.22;;;0.77;81.00
9281;BME280;4679;47.966;7.958;2023-03-03T07:23:37;97400.13;;;0.82;80.92
9281;BME280;4679;47.966;7.958;2023-03-03T07:25:42;97406.44;;;0.87;80.78
9281;BME280;4679;47.966;7.958;2023-03-03T07:27:45;97392.50;;;0.95;80.48
9281;BME280;4679;47.966;7.958;2023-03-03T07:29:48;97410.91;;;1.01;80.29
9281;BME280;4679;47.966;7.958;2023-03-03T07:31:52;97400.94;;;1.05;80.90
9281;BME280;4679;47.966;7.958;2023-03-03T07:33:56;97402.00;;;1.11;80.88
9281;BME280;4679;47.966;7.958;2023-03-03T07:36:02;97412.56;;;1.17;80.23
9281;BME280;4679;47.966;7.958;2023-03-03T07:38:16;97404.00;;;1.23;80.09
9281;BME280;4679;47.966;7.958;2023-03-03T07:40:34;97415.56;;;1.29;80.49
9281;BME280;4679;47.966;7.958;2023-03-03T07:42:38;97409.16;;;1.31;80.66
9281;BME280;4679;47.966;7.958;2023-03-03T07:44:40;97414.69;;;1.36;80.79
9281;BME280;4679;47.966;7.958;2023-03-03T07:46:43;97414.31;;;1.39;80.58
9281;BME280;4679;47.966;7.958;2023-03-03T07:48:45;97411.69;;;1.39;80.58
9281;BME280;4679;47.966;7.958;2023-03-03T07:50:47;97418.03;;;1.45;80.02
9281;BME280;4679;47.966;7.958;2023-03-03T07:52:54;97426.16;;;1.50;80.17
9281;BME280;4679;47.966;7.958;2023-03-03T07:54:57;97419.56;;;1.54;80.61
9281;BME280;4679;47.966;7.958;2023-03-03T07:57:11;97428.50;;;1.60;79.97
9281;BME280;4679;47.966;7.958;2023-03-03T07:59:20;97429.75;;;1.64;80.19
9281;BME280;4679;47.966;7.958;2023-03-03T08:03:45;97439.94;;;1.73;80.29
9281;BME280;4679;47.966;7.958;2023-03-03T08:05:50;97437.44;;;1.80;79.84
9281;BME280;4679;47.966;7.958;2023-03-03T08:07:55;97437.69;;;1.85;79.90
9281;BME280;4679;47.966;7.958;2023-03-03T08:09:59;97436.97;;;1.91;80.13
9281;BME280;4679;47.966;7.958;2023-03-03T08:14:29;97434.91;;;2.01;79.51
9281;BME280;4679;47.966;7.958;2023-03-03T08:16:36;97428.50;;;2.04;79.67
9281;BME280;4679;47.966;7.958;2023-03-03T08:18:39;97435.81;;;2.08;80.31
9281;BME280;4679;47.966;7.958;2023-03-03T08:20:45;97434.06;;;2.16;80.09
9281;BME280;4679;47.966;7.958;2023-03-03T08:22:47;97436.31;;;2.19;79.88
9281;BME280;4679;47.966;7.958;2023-03-03T08:24:50;97435.69;;;2.17;80.10
9281;BME280;4679;47.966;7.958;2023-03-03T08:26:52;97443.38;;;2.18;80.27
9281;BME280;4679;47.966;7.958;2023-03-03T08:28:53;97438.94;;;2.19;79.97
9281;BME280;4679;47.966;7.958;2023-03-03T08:30:55;97436.41;;;2.25;79.51
9281;BME280;4679;47.966;7.958;2023-03-03T08:32:57;97434.66;;;2.32;80.10
9281;BME280;4679;47.966;7.958;2023-03-03T08:35:00;97437.03;;;2.42;79.37
9281;BME280;4679;47.966;7.958;2023-03-03T08:37:01;97440.16;;;2.52;79.90
9281;BME280;4679;47.966;7.958;2023-03-03T08:39:04;97436.63;;;2.60;79.11
9281;BME280;4679;47.966;7.958;2023-03-03T08:41:07;97436.22;;;2.63;79.61
9281;BME280;4679;47.966;7.958;2023-03-03T08:43:09;97437.22;;;2.62;79.30
9281;BME280;4679;47.966;7.958;2023-03-03T08:45:13;97433.06;;;2.67;79.46
9281;BME280;4679;47.966;7.958;2023-03-03T08:47:15;97437.16;;;2.76;79.72
9281;BME280;4679;47.966;7.958;2023-03-03T08:49:17;97437.44;;;2.81;79.20
9281;BME280;4679;47.966;7.958;2023-03-03T08:51:19;97441.94;;;2.88;79.23
9281;BME280;4679;47.966;7.958;2023-03-03T08:53:22;97435.75;;;2.95;78.82
9281;BME280;4679;47.966;7.958;2023-03-03T08:55:24;97441.06;;;3.02;78.35
9281;BME280;4679;47.966;7.958;2023-03-03T08:57:26;97437.25;;;3.04;78.63
9281;BME280;4679;47.966;7.958;2023-03-03T08:59:28;97437.66;;;3.08;78.49
9281;BME280;4679;47.966;7.958;2023-03-03T09:01:30;97445.78;;;3.13;78.55
9281;BME280;4679;47.966;7.958;2023-03-03T09:03:32;97440.00;;;3.17;78.27
9281;BME280;4679;47.966;7.958;2023-03-03T09:05:36;97438.22;;;3.25;78.94
9281;BME280;4679;47.966;7.958;2023-03-03T09:07:38;97440.28;;;3.29;77.94
9281;BME280;4679;47.966;7.958;2023-03-03T09:09:40;97432.03;;;3.32;77.98
9281;BME280;4679;47.966;7.958;2023-03-03T09:11:41;97439.31;;;3.37;78.29
9281;BME280;4679;47.966;7.958;2023-03-03T09:13:45;97435.75;;;3.44;77.55
9281;BME280;4679;47.966;7.958;2023-03-03T09:15:52;97435.22;;;3.56;78.19
9281;BME280;4679;47.966;7.958;2023-03-03T09:17:57;97437.28;;;3.60;78.09
9281;BME280;4679;47.966;7.958;2023-03-03T09:20:01;97437.28;;;3.60;77.39
9281;BME280;4679;47.966;7.958;2023-03-03T09:22:18;97436.56;;;3.73;77.91
9281;BME280;4679;47.966;7.958;2023-03-03T09:24:24;97436.03;;;3.84;77.29
9281;BME280;4679;47.966;7.958;2023-03-03T09:26:28;97437.69;;;3.92;77.36
9281;BME280;4679;47.966;7.958;2023-03-03T09:28:31;97440.16;;;4.00;77.37
9281;BME280;4679;47.966;7.958;2023-03-03T09:30:39;97437.19;;;4.09;77.08
9281;BME280;4679;47.966;7.958;2023-03-03T09:32:43;97438.00;;;4.16;76.93
9281;BME280;4679;47.966;7.958;2023-03-03T09:34:45;97431.00;;;4.23;76.94
9281;BME280;4679;47.966;7.958;2023-03-03T09:36:47;97435.25;;;4.24;76.92
9281;BME280;4679;47.966;7.958;2023-03-03T09:38:49;97435.03;;;4.26;76.96
9281;BME280;4679;47.966;7.958;2023-03-03T09:41:11;97434.25;;;4.32;76.93
9281;BME280;4679;47.966;7.958;2023-03-03T09:43:21;97430.84;;;4.38;76.61
9281;BME280;4679;47.966;7.958;2023-03-03T09:45:53;97436.47;;;4.35;76.76
9281;BME280;4679;47.966;7.958;2023-03-03T09:48:10;97435.72;;;4.41;76.68
9281;BME280;4679;47.966;7.958;2023-03-03T09:50:25;97428.72;;;4.68;76.37
9281;BME280;4679;47.966;7.958;2023-03-03T09:52:37;97435.78;;;4.68;75.97
9281;BME280;4679;47.966;7.958;2023-03-03T09:54:56;97433.38;;;4.73;76.12
9281;BME280;4679;47.966;7.958;2023-03-03T09:57:04;97428.72;;;4.75;75.92
9281;BME280;4679;47.966;7.958;2023-03-03T09:59:17;97428.53;;;4.76;76.00
9281;BME280;4679;47.966;7.958;2023-03-03T10:01:39;97430.53;;;4.74;76.19
9281;BME280;4679;47.966;7.958;2023-03-03T10:04:10;97432.00;;;4.83;75.79
9281;BME280;4679;47.966;7.958;2023-03-03T10:06:21;97437.28;;;5.10;75.67
9281;BME280;4679;47.966;7.958;2023-03-03T10:08:37;97437.28;;;5.16;74.93
9281;BME280;4679;47.966;7.958;2023-03-03T10:10:51;97438.09;;;5.17;74.76
9281;BME280;4679;47.966;7.958;2023-03-03T10:13:15;97436.88;;;5.13;74.77
9281;BME280;4679;47.966;7.958;2023-03-03T10:15:31;97436.09;;;5.19;74.90
9281;BME280;4679;47.966;7.958;2023-03-03T10:17:47;97436.47;;;5.36;75.12
9281;BME280;4679;47.966;7.958;2023-03-03T10:20:04;97437.47;;;5.21;74.36
9281;BME280;4679;47.966;7.958;2023-03-03T10:22:17;97433.47;;;5.32;74.59
9281;BME280;4679;47.966;7.958;2023-03-03T10:24:26;97441.75;;;5.55;74.22
9281;BME280;4679;47.966;7.958;2023-03-03T10:26:53;97432.63;;;5.64;74.59
9281;BME280;4679;47.966;7.958;2023-03-03T10:29:08;97435.06;;;5.59;73.61
9281;BME280;4679;47.966;7.958;2023-03-03T10:31:24;97425.72;;;5.70;73.24
9281;BME280;4679;47.966;7.958;2023-03-03T10:33:31;97431.19;;;5.75;73.18
9281;BME280;4679;47.966;7.958;2023-03-03T10:35:45;97431.41;;;5.74;73.16
9281;BME280;4679;47.966;7.958;2023-03-03T10:38:04;97433.03;;;5.55;74.24
9281;BME280;4679;47.966;7.958;2023-03-03T10:40:20;97436.47;;;5.62;73.98
9281;BME280;4679;47.966;7.958;2023-03-03T10:42:39;97435.63;;;5.81;73.11
9281;BME280;4679;47.966;7.958;2023-03-03T10:44:55;97425.72;;;5.90;72.61
9281;BME280;4679;47.966;7.958;2023-03-03T10:47:16;97434.81;;;5.81;73.35
9281;BME280;4679;47.966;7.958;2023-03-03T10:49:40;97437.69;;;5.73;72.44
9281;BME280;4679;47.966;7.958;2023-03-03T10:52:02;97441.94;;;5.74;73.11
9281;BME280;4679;47.966;7.958;2023-03-03T10:54:22;97430.56;;;5.99;72.66
9281;BME280;4679;47.966;7.958;2023-03-03T10:56:37;97429.03;;;6.37;71.04
9281;BME280;4679;47.966;7.958;2023-03-03T10:58:48;97437.44;;;6.58;71.13
9281;BME280;4679;47.966;7.958;2023-03-03T11:00:58;97429.38;;;6.53;70.56
9281;BME280;4679;47.966;7.958;2023-03-03T11:03:26;97427.16;;;6.50;70.64
9281;BME280;4679;47.966;7.958;2023-03-03T11:05:39;97424.72;;;6.49;71.85
9281;BME280;4679;47.966;7.958;2023-03-03T11:07:45;97440.13;;;6.52;71.17
9281;BME280;4679;47.966;7.958;2023-03-03T11:09:58;97427.25;;;6.24;71.76
9281;BME280;4679;47.966;7.958;2023-03-03T11:12:06;97422.59;;;6.19;71.85
9281;BME280;4679;47.966;7.958;2023-03-03T11:14:12;97426.56;;;6.42;71.72
9281;BME280;4679;47.966;7.958;2023-03-03T11:16:28;97421.66;;;6.52;70.15
9281;BME280;4679;47.966;7.958;2023-03-03T11:18:41;97418.69;;;6.73;69.83
9281;BME280;4679;47.966;7.958;2023-03-03T11:20:53;97421.13;;;6.75;69.79
9281;BME280;4679;47.966;7.958;2023-03-03T11:23:01;97421.66;;;6.52;70.83
9281;BME280;4679;47.966;7.958;2023-03-03T11:25:17;97424.09;;;6.53;70.77
9281;BME280;4679;47.966;7.958;2023-03-03T11:27:54;97417.00;;;6.54;70.99
9281;BME280;4679;47.966;7.958;2023-03-03T11:32:30;97422.59;;;7.02;70.04
9281;BME280;4679;47.966;7.958;2023-03-03T11:35:04;97420.41;;;6.92;69.33
9281;BME280;4679;47.966;7.958;2023-03-03T11:37:14;97418.34;;;6.63;69.25
9281;BME280;4679;47.966;7.958;2023-03-03T11:39:19;97421.94;;;6.75;70.22
9281;BME280;4679;47.966;7.958;2023-03-03T11:41:29;97411.53;;;6.87;69.47
9281;BME280;4679;47.966;7.958;2023-03-03T11:43:37;97411.38;;;6.82;69.94
9281;BME280;4679;47.966;7.958;2023-03-03T11:45:44;97415.03;;;6.74;69.93
9281;BME280;4679;47.966;7.958;2023-03-03T11:47:53;97406.72;;;6.77;68.78
9281;BME280;4679;47.966;7.958;2023-03-03T11:50:01;97413.72;;;6.96;68.70
9281;BME280;4679;47.966;7.958;2023-03-03T11:52:16;97406.31;;;7.05;68.58
9281;BME280;4679;47.966;7.958;2023-03-03T11:54:23;97407.16;;;7.30;68.76
9281;BME280;4679;47.966;7.958;2023-03-03T11:56:33;97409.94;;;7.35;68.25
9281;BME280;4679;47.966;7.958;2023-03-03T11:58:44;97409.09;;;7.41;68.03
9281;BME280;4679;47.966;7.958;2023-03-03T12:00:50;97402.47;;;7.57;67.74
9281;BME280;4679;47.966;7.958;2023-03-03T12:03:13;97408.88;;;7.68;67.81
9281;BME280;4679;47.966;7.958;2023-03-03T12:05:28;97409.38;;;7.58;68.04
9281;BME280;4679;47.966;7.958;2023-03-03T12:07:38;97404.81;;;7.65;67.95
9281;BME280;4679;47.966;7.958;2023-03-03T12:09:50;97402.50;;;7.75;67.43
9281;BME280;4679;47.966;7.958;2023-03-03T12:11:56;97398.25;;;7.93;67.07
9281;BME280;4679;47.966;7.958;2023-03-03T12:14:07;97406.91;;;7.63;66.79
9281;BME280;4679;47.966;7.958;2023-03-03T12:16:14;97401.91;;;7.49;67.73
9281;BME280;4679;47.966;7.958;2023-03-03T12:18:29;97401.81;;;7.62;67.59
9281;BME280;4679;47.966;7.958;2023-03-03T12:20:37;97393.97;;;7.73;66.67
9281;BME280;4679;47.966;7.958;2023-03-03T12:22:51;97386.56;;;7.82;66.55
9281;BME280;4679;47.966;7.958;2023-03-03T12:25:07;97383.50;;;8.03;66.58
9281;BME280;4679;47.966;7.958;2023-03-03T12:27:20;97378.22;;;8.22;66.11
9281;BME280;4679;47.966;7.958;2023-03-03T12:29:26;97381.66;;;8.22;65.80
9281;BME280;4679;47.966;7.958;2023-03-03T12:31:36;97381.94;;;8.14;65.82
9281;BME280;4679;47.966;7.958;2023-03-03T12:33:51;97379.94;;;8.28;65.58
9281;BME280;4679;47.966;7.958;2023-03-03T12:36:03;97384.22;;;8.47;65.28
9281;BME280;4679;47.966;7.958;2023-03-03T12:38:14;97381.78;;;8.64;65.27
9281;BME280;4679;47.966;7.958;2023-03-03T12:40:19;97371.38;;;8.51;64.95
9281;BME280;4679;47.966;7.958;2023-03-03T12:42:30;97378.69;;;8.67;64.86
9281;BME280;4679;47.966;7.958;2023-03-03T12:44:38;97374.00;;;8.80;64.47
9281;BME280;4679;47.966;7.958;2023-03-03T12:47:27;97370.31;;;8.70;64.65
9281;BME280;4679;47.966;7.958;2023-03-03T12:49:36;97369.38;;;8.76;64.80
9281;BME280;4679;47.966;7.958;2023-03-03T12:51:47;97367.13;;;8.91;64.12
9281;BME280;4679;47.966;7.958;2023-03-03T12:54:07;97359.59;;;8.76;64.43
9281;BME280;4679;47.966;7.958;2023-03-03T12:56:13;97362.22;;;8.65;64.17
9281;BME280;4679;47.966;7.958;2023-03-03T12:58:27;97359.63;;;8.88;63.79
9281;BME280;4679;47.966;7.958;2023-03-03T13:00:42;97362.13;;;9.13;63.82
9281;BME280;4679;47.966;7.958;2023-03-03T13:02:57;97355.44;;;9.22;63.20
9281;BME280;4679;47.966;7.958;2023-03-03T13:05:06;97364.84;;;8.95;63.61
9281;BME280;4679;47.966;7.958;2023-03-03T13:07:18;97357.78;;;8.89;63.39
9281;BME280;4679;47.966;7.958;2023-03-03T13:09:31;97364.94;;;8.88;63.53
9281;BME280;4679;47.966;7.958;2023-03-03T13:12:00;97359.03;;;9.16;62.65
9281;BME280;4679;47.966;7.958;2023-03-03T13:14:15;97365.00;;;9.11;63.35
9281;BME280;4679;47.966;7.958;2023-03-03T13:16:21;97359.50;;;9.60;62.50
9281;BME280;4679;47.966;7.958;2023-03-03T13:18:37;97360.72;;;9.80;62.33
9281;BME280;4679;47.966;7.958;2023-03-03T13:20:49;97361.56;;;9.69;62.28
9281;BME280;4679;47.966;7.958;2023-03-03T13:22:58;97371.00;;;9.65;62.60
9281;BME280;4679;47.966;7.958;2023-03-03T13:25:06;97356.28;;;9.46;63.03
9281;BME280;4679;47.966;7.958;2023-03-03T13:27:11;97364.69;;;9.43;62.44
9281;BME280;4679;47.966;7.958;2023-03-03T13:29:18;97371.09;;;9.24;63.34
9281;BME280;4679;47.966;7.958;2023-03-03T13:31:23;97371.47;;;9.39;62.38
9281;BME280;4679;47.966;7.958;2023-03-03T13:33:29;97363.38;;;9.22;62.53
9281;BME280;4679;47.966;7.958;2023-03-03T13:35:40;97365.88;;;8.94;62.79
9281;BME280;4679;47.966;7.958;2023-03-03T13:37:47;97363.94;;;8.71;63.45
9281;BME280;4679;47.966;7.958;2023-03-03T13:39:55;97365.34;;;8.73;63.16
9281;BME280;4679;47.966;7.958;2023-03-03T13:42:00;97367.75;;;8.75;63.61
9281;BME280;4679;47.966;7.958;2023-03-03T13:44:05;97364.66;;;8.66;63.38
9281;BME280;4679;47.966;7.958;2023-03-03T13:46:15;97360.63;;;8.75;63.17
9281;BME280;4679;47.966;7.958;2023-03-03T13:48:31;97361.22;;;8.77;63.49
9281;BME280;4679;47.966;7.958;2023-03-03T13:50:40;97359.03;;;8.74;63.54
9281;BME280;4679;47.966;7.958;2023-03-03T13:52:51;97364.44;;;8.79;63.39
9281;BME280;4679;47.966;7.958;2023-03-03T13:55:05;97365.13;;;8.75;63.52
9281;BME280;4679;47.966;7.958;2023-03-03T13:57:19;97371.22;;;8.75;63.35
9281;BME280;4679;47.966;7.958;2023-03-03T13:59:30;97365.84;;;8.82;63.68
9281;BME280;4679;47.966;7.958;2023-03-03T14:01:46;97365.50;;;8.90;63.53
9281;BME280;4679;47.966;7.958;2023-03-03T14:04:12;97364.47;;;8.91;63.60
9281;BME280;4679;47.966;7.958;2023-03-03T14:06:16;97355.50;;;8.92;nan
9281;BME280;4679;47.966;7.958;2023-03-03T14:08:25;97358.81;;;8.88;63.40
9281;BME280;4679;47.966;7.958;2023-03-03T14:10:35;97348.81;;;8.78;63.28
9281;BME280;4679;47.966;7.958;2023-03-03T14:12:43;97342.00;;;8.70;63.48
9281;BME280;4679;47.966;7.958;2023-03-03T14:14:54;97355.34;;;8.75;63.63
9281;BME280;4679;47.966;7.958;2023-03-03T14:17:02;97349.41;;;8.92;62.64
9281;BME280;4679;47.966;7.958;2023-03-03T14:19:11;97343.53;;;9.01;62.70
9281;BME280;4679;47.966;7.958;2023-03-03T14:21:19;97341.44;;;8.80;63.42
9281;BME280;4679;47.966;7.958;2023-03-03T14:23:31;97346.22;;;8.60;62.54
9281;BME280;4679;47.966;7.958;2023-03-03T14:25:51;97343.03;;;8.69;63.31
9281;BME280;4679;47.966;7.958;2023-03-03T14:28:00;97352.41;;;8.84;62.77
9281;BME280;4679;47.966;7.958;2023-03-03T14:30:24;97346.25;;;9.25;62.42
9281;BME280;4679;47.966;7.958;2023-03-03T14:32:27;97349.59;;;9.55;61.19
9281;BME280;4679;47.966;7.958;2023-03-03T14:34:35;97346.81;;;9.50;61.88
9281;BME280;4679;47.966;7.958;2023-03-03T14:36:40;97336.44;;;9.37;62.04
9281;BME280;4679;47.966;7.958;2023-03-03T14:38:46;97334.84;;;9.59;61.89
9281;BME280;4679;47.966;7.958;2023-03-03T14:40:49;97342.19;;;9.69;61.21
9281;BME280;4679;47.966;7.958;2023-03-03T14:43:07;97338.41;;;9.65;60.99
9281;BME280;4679;47.966;7.958;2023-03-03T14:45:27;97346.34;;;9.76;60.96
9281;BME280;4679;47.966;7.958;2023-03-03T14:47:29;97343.31;;;9.96;61.04
9281;BME280;4679;47.966;7.958;2023-03-03T14:49:35;97339.47;;;10.15;60.15
9281;BME280;4679;47.966;7.958;2023-03-03T14:51:40;97339.44;;;10.39;60.08
9281;BME280;4679;47.966;7.958;2023-03-03T14:53:43;97340.72;;;10.13;60.22
9281;BME280;4679;47.966;7.958;2023-03-03T14:55:49;97339.84;;;10.07;60.94
9281;BME280;4679;47.966;7.958;2023-03-03T14:57:51;97342.56;;;10.12;60.62
9281;BME280;4679;47.966;7.958;2023-03-03T14:59:59;97333.34;;;10.27;60.46
9281;BME280;4679;47.966;7.958;2023-03-03T15:02:27;97336.44;;;10.35;59.98
9281;BME280;4679;47.966;7.958;2023-03-03T15:04:29;97336.38;;;9.95;61.12
9281;BME280;4679;47.966;7.958;2023-03-03T15:06:35;97335.44;;;10.13;60.69
9281;BME280;4679;47.966;7.958;2023-03-03T15:08:40;97336.84;;;10.04;60.60
9281;BME280;4679;47.966;7.958;2023-03-03T15:10:43;97338.75;;;9.57;61.37
9281;BME280;4679;47.966;7.958;2023-03-03T15:12:45;97345.34;;;9.31;61.83
9281;BME280;4679;47.966;7.958;2023-03-03T15:14:48;97337.03;;;9.39;61.75
9281;BME280;4679;47.966;7.958;2023-03-03T15:16:50;97332.75;;;9.49;61.46
9281;BME280;4679;47.966;7.958;2023-03-03T15:19:09;97334.16;;;9.52;61.49
9281;BME280;4679;47.966;7.958;2023-03-03T15:21:17;97333.91;;;9.53;61.57
9281;BME280;4679;47.966;7.958;2023-03-03T15:23:45;97333.34;;;9.51;62.00
9281;BME280;4679;47.966;7.958;2023-03-03T15:25:53;97335.53;;;9.43;61.37
9281;BME280;4679;47.966;7.958;2023-03-03T15:28:09;97328.06;;;9.40;61.62
9281;BME280;4679;47.966;7.958;2023-03-03T15:30:22;97333.34;;;9.28;61.82
9281;BME280;4679;47.966;7.958;2023-03-03T15:32:27;97327.47;;;9.14;62.14
9281;BME280;4679;47.966;7.958;2023-03-03T15:34:37;97346.69;;;9.10;62.03
9281;BME280;4679;47.966;7.958;2023-03-03T15:36:44;97338.59;;;9.05;62.19
9281;BME280;4679;47.966;7.958;2023-03-03T15:38:55;97348.53;;;9.09;62.33
9281;BME280;4679;47.966;7.958;2023-03-03T15:41:10;97349.03;;;8.76;62.64
9281;BME280;4679;47.966;7.958;2023-03-03T15:43:21;97337.06;;;8.44;62.76
9281;BME280;4679;47.966;7.958;2023-03-03T15:45:30;97347.47;;;8.57;62.96
9281;BME280;4679;47.966;7.958;2023-03-03T15:48:03;97349.22;;;8.63;62.86
9281;BME280;4679;47.966;7.958;2023-03-03T15:50:23;97350.72;;;8.71;62.62
9281;BME280;4679;47.966;7.958;2023-03-03T15:52:37;97350.38;;;8.67;62.62
9281;BME280;4679;47.966;7.958;2023-03-03T15:54:50;97354.03;;;8.55;62.91
9281;BME280;4679;47.966;7.958;2023-03-03T15:56:57;97351.91;;;8.45;63.06
9281;BME280;4679;47.966;7.958;2023-03-03T15:59:24;97352.94;;;8.26;63.36
9281;BME280;4679;47.966;7.958;2023-03-03T16:01:32;97346.50;;;8.22;63.32
9281;BME280;4679;47.966;7.958;2023-03-03T16:03:36;97348.44;;;8.26;63.81
9281;BME280;4679;47.966;7.958;2023-03-03T16:05:45;97352.72;;;8.27;63.04
9281;BME280;4679;47.966;7.958;2023-03-03T16:07:57;97352.97;;;8.07;63.55
9281;BME280;4679;47.966;7.958;2023-03-03T16:10:10;97350.13;;;7.91;63.46
9281;BME280;4679;47.966;7.958;2023-03-03T16:12:20;97352.31;;;7.94;63.78
9281;BME280;4679;47.966;7.958;2023-03-03T16:17:00;97355.78;;;7.94;63.83
9281;BME280;4679;47.966;7.958;2023-03-03T16:19:17;97358.16;;;7.96;63.38
9281;BME280;4679;47.966;7.958;2023-03-03T16:21:28;97360.53;;;7.86;64.19
9281;BME280;4679;47.966;7.958;2023-03-03T16:23:38;97362.66;;;7.77;64.54
9281;BME280;4679;47.966;7.958;2023-03-03T16:25:59;97365.53;;;7.75;64.58
9281;BME280;4679;47.966;7.958;2023-03-03T16:28:08;97370.88;;;7.69;64.08
9281;BME280;4679;47.966;7.958;2023-03-03T16:30:24;97374.41;;;7.63;64.80
9281;BME280;4679;47.966;7.958;2023-03-03T16:32:33;97381.59;;;7.49;64.99
9281;BME280;4679;47.966;7.958;2023-03-03T16:34:42;97375.59;;;7.42;64.40
9281;BME280;4679;47.966;7.958;2023-03-03T16:36:55;97388.78;;;7.42;64.49
9281;BME280;4679;47.966;7.958;2023-03-03T16:39:03;97391.66;;;7.40;64.86
9281;BME280;4679;47.966;7.958;2023-03-03T16:41:09;97385.34;;;7.41;64.60
9281;BME280;4679;47.966;7.958;2023-03-03T16:43:19;97401.00;;;7.36;64.59
9281;BME280;4679;47.966;7.958;2023-03-03T16:45:25;97392.28;;;7.36;65.23
9281;BME280;4679;47.966;7.958;2023-03-03T16:47:48;97403.88;;;7.35;64.53
9281;BME280;4679;47.966;7.958;2023-03-03T16:50:04;97400.50;;;7.28;64.54
9281;BME280;4679;47.966;7.958;2023-03-03T16:52:11;97408.88;;;7.18;65.47
9281;BME280;4679;47.966;7.958;2023-03-03T16:54:19;97412.78;;;7.16;65.46
9281;BME280;4679;47.966;7.958;2023-03-03T16:56:31;97416.63;;;7.13;65.48
9281;BME280;4679;47.966;7.958;2023-03-03T16:58:43;97423.97;;;7.11;65.04
9281;BME280;4679;47.966;7.958;2023-03-03T17:00:52;97419.91;;;7.09;65.56
9281;BME280;4679;47.966;7.958;2023-03-03T17:03:12;97422.97;;;7.05;65.80
9281;BME280;4679;47.966;7.958;2023-03-03T17:05:26;97424.19;;;7.03;66.09
9281;BME280;4679;47.966;7.958;2023-03-03T17:07:38;97428.50;;;6.97;65.72
9281;BME280;4679;47.966;7.958;2023-03-03T17:10:04;97437.66;;;6.95;65.16
9281;BME280;4679;47.966;7.958;2023-03-03T17:12:24;97434.84;;;6.90;66.09
9281;BME280;4679;47.966;7.958;2023-03-03T17:14:42;97437.94;;;6.80;66.02
9281;BME280;4679;47.966;7.958;2023-03-03T17:16:55;97445.25;;;6.78;66.64
9281;BME280;4679;47.966;7.958;2023-03-03T17:19:07;97443.03;;;6.75;66.57
9281;BME280;4679;47.966;7.958;2023-03-03T17:21:17;97439.44;;;6.69;66.34
9281;BME280;4679;47.966;7.958;2023-03-03T17:23:34;97444.72;;;6.63;65.93
9281;BME280;4679;47.966;7.958;2023-03-03T17:25:43;97451.44;;;6.59;66.35
9281;BME280;4679;47.966;7.958;2023-03-03T17:28:08;97445.78;;;6.55;66.72
9281;BME280;4679;47.966;7.958;2023-03-03T17:30:20;97447.41;;;6.56;65.69
9281;BME280;4679;47.966;7.958;2023-03-03T17:32:32;97440.72;;;6.54;66.48
9281;BME280;4679;47.966;7.958;2023-03-03T17:34:47;97450.06;;;6.50;67.00
9281;BME280;4679;47.966;7.958;2023-03-03T17:37:02;97445.81;;;6.42;66.53
9281;BME280;4679;47.966;7.958;2023-03-03T17:39:22;97452.75;;;6.37;66.21
9281;BME280;4679;47.966;7.958;2023-03-03T17:41:34;97458.63;;;6.32;67.18
9281;BME280;4679;47.966;7.958;2023-03-03T17:43:46;97455.63;;;6.22;67.28
9281;BME280;4679;47.966;7.958;2023-03-03T17:45:54;97463.53;;;6.15;66.66
9281;BME280;4679;47.966;7.958;2023-03-03T17:48:11;97470.84;;;6.13;66.54
9281;BME280;4679;47.966;7.958;2023-03-03T17:50:28;97469.66;;;6.09;66.50
9281;BME280;4679;47.966;7.958;2023-03-03T17:52:57;97467.63;;;5.98;67.35
9281;BME280;4679;47.966;7.958;2023-03-03T17:55:25;97474.50;;;5.86;67.27
9281;BME280;4679;47.966;7.958;2023-03-03T17:57:43;97478.78;;;5.74;67.71
9281;BME280;4679;47.966;7.958;2023-03-03T18:05:17;97478.59;;;5.55;67.86
9281;BME280;4679;47.966;7.958;2023-03-03T18:07:41;97489.50;;;5.52;67.84
9281;BME280;4679;47.966;7.958;2023-03-03T18:09:57;97494.59;;;5.47;68.08
9281;BME280;4679;47.966;7.958;2023-03-03T18:12:10;97494.78;;;5.33;68.64
9281;BME280;4679;47.966;7.958;2023-03-03T18:14:39;97498.00;;;5.15;68.65
9281;BME280;4679;47.966;7.958;2023-03-03T18:17:02;97497.16;;;5.01;68.51
9281;BME280;4679;47.966;7.958;2023-03-03T18:19:21;97498.75;;;4.95;69.32
9281;BME280;4679;47.966;7.958;2023-03-03T18:21:33;97497.13;;;4.88;68.92
9281;BME280;4679;47.966;7.958;2023-03-03T18:23:39;97502.78;;;4.85;69.47
9281;BME280;4679;47.966;7.958;2023-03-03T18:25:52;97505.97;;;4.80;69.32
9281;BME280;4679;47.966;7.958;2023-03-03T18:28:23;97506.38;;;4.77;69.91
9281;BME280;4679;47.966;7.958;2023-03-03T18:30:55;97509.00;;;4.71;69.30
9281;BME280;4679;47.966;7.958;2023-03-03T18:33:10;97509.53;;;4.59;69.92
9281;BME280;4679;47.966;7.958;2023-03-03T18:35:21;97513.16;;;4.58;69.73
9281;BME280;4679;47.966;7.958;2023-03-03T18:37:39;97513.38;;;4.57;70.17
9281;BME280;4679;47.966;7.958;2023-03-03T18:39:44;97515.34;;;4.42;70.22
9281;BME280;4679;47.966;7.958;2023-03-03T18:42:07;97529.63;;;4.33;70.36
9281;BME280;4679;47.966;7.958;2023-03-03T18:44:24;97525.78;;;4.35;70.27
9281;BME280;4679;47.966;7.958;2023-03-03T18:46:46;97523.34;;;4.34;70.30
9281;BME280;4679;47.966;7.958;2023-03-03T18:48:52;97529.03;;;4.37;70.54
9281;BME280;4679;47.966;7.958;2023-03-03T18:50:54;97518.78;;;4.42;70.21
9281;BME280;4679;47.966;7.958;2023-03-03T18:53:13;97533.06;;;4.33;70.26
9281;BME280;4679;47.966;7.958;2023-03-03T18:55:25;97530.78;;;4.23;70.39
9281;BME280;4679;47.966;7.958;2023-03-03T18:57:27;97529.28;;;4.14;70.50
9281;BME280;4679;47.966;7.958;2023-03-03T18:59:48;97537.97;;;4.08;70.43
9281;BME280;4679;47.966;7.958;2023-03-03T19:01:51;97529.09;;;4.09;70.90